sensor_id;sensor_type;location;lat;lon;timestamp;pressure;altitude;pressure_sealevel;temperature;humidity
12471;BME280;36499;46.484;13.832;2023-01-31T00:01:32;93288.28;;;-1.19;75.30
12471;BME280;36499;46.484;13.832;2023-01-31T00:04:02;93288.94;;;-1.17;74.82
12471;BME280;36499;46.484;13.832;2023-01-31T00:06:33;93286.00;;;-1.22;75.65
12471;BME280;36499;46.484;13.832;2023-01-31T00:09:03;93291.41;;;-1.44;76.40
12471;BME280;36499;46.484;13.832;2023-01-31T00:11:32;93289.38;;;-1.31;75.46
12471;BME280;36499;46.484;13.832;2023-01-31T00:14:03;93289.47;;;-1.13;75.89
12471;BME280;36499;46.484;13.832;2023-01-31T00:16:32;93296.06;;;-1.11;74.71
12471;BME280;36499;46.484;13.832;2023-01-31T00:19:00;93300.09;;;-1.18;75.09
12471;BME280;36499;46.484;13.832;2023-01-31T00:21:30;93305.94;;;-1.35;76.20
12471;BME280;36499;46.484;13.832;2023-01-31T00:23:58;93298.91;;;-1.33;76.03
12471;BME280;36499;46.484;13.832;2023-01-31T00:26:27;93297.31;;;-1.43;76.66
12471;BME280;36499;46.484;13.832;2023-01-31T00:28:57;93313.06;;;-1.48;76.09
12471;BME280;36499;46.484;13.832;2023-01-31T00:31:27;93301.91;;;-1.57;77.15
12471;BME280;36499;46.484;13.832;2023-01-31T00:33:56;93299.38;;;-1.57;76.55
12471;BME280;36499;46.484;13.832;2023-01-31T00:36:26;93300.28;;;-1.58;77.09
12471;BME280;36499;46.484;13.832;2023-01-31T00:38:55;93316.56;;;-1.68;77.19
12471;BME280;36499;46.484;13.832;2023-01-31T00:41:25;93327.97;;;-1.82;78.09
12471;BME280;36499;46.484;13.832;2023-01-31T00:43:52;93324.38;;;-1.79;78.08
12471;BME280;36499;46.484;13.832;2023-01-31T00:46:20;93323.16;;;-1.75;77.97
12471;BME280;36499;46.484;13.832;2023-01-31T00:48:48;93325.97;;;-1.69;78.34
12471;BME280;36499;46.484;13.832;2023-01-31T00:51:18;93335.66;;;-1.82;78.96
12471;BME280;36499;46.484;13.832;2023-01-31T00:53:46;93341.19;;;-1.86;78.51
12471;BME280;36499;46.484;13.832;2023-01-31T00:56:18;93333.75;;;-1.89;78.81
12471;BME280;36499;46.484;13.832;2023-01-31T00:58:45;93331.75;;;-1.76;77.70
12471;BME280;36499;46.484;13.832;2023-01-31T01:01:15;93337.53;;;-1.74;77.91
12471;BME280;36499;46.484;13.832;2023-01-31T01:03:44;93332.84;;;-1.79;77.82
12471;BME280;36499;46.484;13.832;2023-01-31T01:06:12;93335.53;;;-1.80;77.80
12471;BME280;36499;46.484;13.832;2023-01-31T01:08:41;93332.94;;;-1.90;77.68
12471;BME280;36499;46.484;13.832;2023-01-31T01:11:11;93342.50;;;-1.82;77.03
12471;BME280;36499;46.484;13.832;2023-01-31T01:13:40;93343.31;;;-1.91;77.21
12471;BME280;36499;46.484;13.832;2023-01-31T01:16:12;93346.94;;;-1.84;77.52
12471;BME280;36499;46.484;13.832;2023-01-31T01:18:40;93343.81;;;-1.98;77.14
12471;BME280;36499;46.484;13.832;2023-01-31T01:21:10;93352.97;;;-1.95;77.34
12471;BME280;36499;46.484;13.832;2023-01-31T01:23:40;93347.44;;;-2.10;78.89
12471;BME280;36499;46.484;13.832;2023-01-31T01:26:13;93346.25;;;-1.96;77.72
12471;BME280;36499;46.484;13.832;2023-01-31T01:28:41;93349.22;;;-1.91;77.45
12471;BME280;36499;46.484;13.832;2023-01-31T01:31:11;93350.78;;;-2.09;77.72
12471;BME280;36499;46.484;13.832;2023-01-31T01:33:38;93347.69;;;-2.13;77.43
12471;BME280;36499;46.484;13.832;2023-01-31T01:36:07;93342.19;;;-2.18;78.49
12471;BME280;36499;46.484;13.832;2023-01-31T01:38:37;93344.84;;;-2.19;78.75
12471;BME280;36499;46.484;13.832;2023-01-31T01:41:07;93349.69;;;-2.16;77.84
12471;BME280;36499;46.484;13.832;2023-01-31T01:43:40;93351.34;;;-2.06;77.07
12471;BME280;36499;46.484;13.832;2023-01-31T01:46:11;93348.38;;;-2.11;77.13
12471;BME280;36499;46.484;13.832;2023-01-31T01:48:41;93354.00;;;-2.17;78.04
12471;BME280;36499;46.484;13.832;2023-01-31T01:51:11;93354.78;;;-2.26;77.97
12471;BME280;36499;46.484;13.832;2023-01-31T01:53:42;93352.63;;;-2.30;78.96
12471;BME280;36499;46.484;13.832;2023-01-31T01:56:16;93359.34;;;-2.29;78.68
12471;BME280;36499;46.484;13.832;2023-01-31T01:58:52;93356.41;;;-2.25;77.79
12471;BME280;36499;46.484;13.832;2023-01-31T02:01:21;93353.69;;;-2.33;78.74
12471;BME280;36499;46.484;13.832;2023-01-31T02:03:52;93355.16;;;-2.30;78.08
12471;BME280;36499;46.484;13.832;2023-01-31T02:06:20;93363.59;;;-2.39;78.81
12471;BME280;36499;46.484;13.832;2023-01-31T02:08:48;93359.19;;;-2.37;77.88
12471;BME280;36499;46.484;13.832;2023-01-31T02:11:21;93359.09;;;-2.26;77.38
12471;BME280;36499;46.484;13.832;2023-01-31T02:13:56;93348.28;;;-2.39;77.47
12471;BME280;36499;46.484;13.832;2023-01-31T02:16:25;93353.91;;;-2.46;78.15
12471;BME280;36499;46.484;13.832;2023-01-31T02:18:52;93354.06;;;-2.37;78.08
12471;BME280;36499;46.484;13.832;2023-01-31T02:22:00;93342.50;;;-2.42;77.60
12471;BME280;36499;46.484;13.832;2023-01-31T02:31:53;93334.31;;;-2.35;77.67
12471;BME280;36499;46.484;13.832;2023-01-31T02:34:36;93333.53;;;-2.36;76.70
12471;BME280;36499;46.484;13.832;2023-01-31T02:37:24;93330.56;;;-2.41;77.51
12471;BME280;36499;46.484;13.832;2023-01-31T02:40:05;93336.44;;;-2.50;77.22
12471;BME280;36499;46.484;13.832;2023-01-31T02:42:50;93323.22;;;-2.65;78.59
12471;BME280;36499;46.484;13.832;2023-01-31T02:45:44;93318.41;;;-2.58;78.58
12471;BME280;36499;46.484;13.832;2023-01-31T02:48:27;93312.75;;;-2.62;78.37
12471;BME280;36499;46.484;13.832;2023-01-31T02:51:06;93316.19;;;-2.72;79.27
12471;BME280;36499;46.484;13.832;2023-01-31T02:53:42;93317.19;;;-2.54;78.16
12471;BME280;36499;46.484;13.832;2023-01-31T02:56:17;93326.53;;;-2.74;78.64
12471;BME280;36499;46.484;13.832;2023-01-31T02:58:52;93321.59;;;-2.66;78.76
12471;BME280;36499;46.484;13.832;2023-01-31T03:01:26;93313.28;;;-2.68;79.42
12471;BME280;36499;46.484;13.832;2023-01-31T03:03:57;93302.09;;;-2.76;79.37
12471;BME280;36499;46.484;13.832;2023-01-31T03:06:53;93311.91;;;-2.72;79.61
12471;BME280;36499;46.484;13.832;2023-01-31T03:09:35;93306.34;;;-2.56;78.19
12471;BME280;36499;46.484;13.832;2023-01-31T03:12:30;93307.53;;;-2.60;77.58
12471;BME280;36499;46.484;13.832;2023-01-31T03:15:29;93312.75;;;-2.62;78.21
12471;BME280;36499;46.484;13.832;2023-01-31T03:18:20;93321.94;;;-2.50;77.82
12471;BME280;36499;46.484;13.832;2023-01-31T03:20:56;93325.66;;;-2.54;78.34
12471;BME280;36499;46.484;13.832;2023-01-31T03:23:30;93324.19;;;-2.56;77.48
12471;BME280;36499;46.484;13.832;2023-01-31T03:26:02;93317.63;;;-2.59;77.40
12471;BME280;36499;46.484;13.832;2023-01-31T03:28:33;93317.19;;;-2.64;77.86
12471;BME280;36499;46.484;13.832;2023-01-31T03:31:10;93308.19;;;-2.88;78.36
12471;BME280;36499;46.484;13.832;2023-01-31T03:33:43;93313.19;;;-2.87;79.14
12471;BME280;36499;46.484;13.832;2023-01-31T03:36:25;93311.22;;;-2.74;78.63
12471;BME280;36499;46.484;13.832;2023-01-31T03:39:05;93312.84;;;-2.73;78.03
12471;BME280;36499;46.484;13.832;2023-01-31T03:41:47;93321.56;;;-2.75;78.45
12471;BME280;36499;46.484;13.832;2023-01-31T03:44:25;93309.63;;;-2.75;78.45
12471;BME280;36499;46.484;13.832;2023-01-31T03:47:03;93314.56;;;-2.73;78.24
12471;BME280;36499;46.484;13.832;2023-01-31T03:49:33;93306.44;;;-2.67;78.21
12471;BME280;36499;46.484;13.832;2023-01-31T03:52:05;93301.97;;;-2.75;78.08
12471;BME280;36499;46.484;13.832;2023-01-31T03:54:40;93306.00;;;-2.72;77.54
12471;BME280;36499;46.484;13.832;2023-01-31T03:57:15;93309.47;;;-2.73;77.84
12471;BME280;36499;46.484;13.832;2023-01-31T03:59:46;93307.00;;;-2.84;77.38
12471;BME280;36499;46.484;13.832;2023-01-31T04:02:24;93317.47;;;-2.87;77.46
12471;BME280;36499;46.484;13.832;2023-01-31T04:04:59;93311.44;;;-2.86;77.34
12471;BME280;36499;46.484;13.832;2023-01-31T04:07:29;93316.94;;;-2.91;78.04
12471;BME280;36499;46.484;13.832;2023-01-31T04:09:58;93308.94;;;-2.77;77.24
12471;BME280;36499;46.484;13.832;2023-01-31T04:12:25;93314.56;;;-2.73;77.73
12471;BME280;36499;46.484;13.832;2023-01-31T04:14:52;93318.03;;;-2.84;78.11
12471;BME280;36499;46.484;13.832;2023-01-31T04:17:19;93310.81;;;-2.79;77.08
12471;BME280;36499;46.484;13.832;2023-01-31T04:19:46;93302.53;;;-2.71;76.32
12471;BME280;36499;46.484;13.832;2023-01-31T04:22:13;93302.22;;;-2.78;76.87
12471;BME280;36499;46.484;13.832;2023-01-31T04:24:40;93296.22;;;-2.98;76.80
12471;BME280;36499;46.484;13.832;2023-01-31T04:27:09;93303.19;;;-3.00;75.41
12471;BME280;36499;46.484;13.832;2023-01-31T04:29:36;93302.63;;;-3.03;76.47
12471;BME280;36499;46.484;13.832;2023-01-31T04:32:03;93301.19;;;-2.96;76.87
12471;BME280;36499;46.484;13.832;2023-01-31T04:34:30;93304.00;;;-2.99;76.77
12471;BME280;36499;46.484;13.832;2023-01-31T04:36:58;93303.59;;;-3.25;75.71
12471;BME280;36499;46.484;13.832;2023-01-31T04:39:25;93297.00;;;-3.48;76.55
12471;BME280;36499;46.484;13.832;2023-01-31T04:41:52;93301.59;;;-3.42;77.92
12471;BME280;36499;46.484;13.832;2023-01-31T04:44:20;93284.31;;;-3.18;77.47
12471;BME280;36499;46.484;13.832;2023-01-31T04:46:48;93282.22;;;-3.13;76.60
12471;BME280;36499;46.484;13.832;2023-01-31T04:49:15;93285.66;;;-3.23;76.90
12471;BME280;36499;46.484;13.832;2023-01-31T04:51:42;93278.13;;;-3.25;76.71
12471;BME280;36499;46.484;13.832;2023-01-31T04:54:09;93296.31;;;-3.09;76.50
12471;BME280;36499;46.484;13.832;2023-01-31T04:56:36;93278.22;;;-3.06;77.09
12471;BME280;36499;46.484;13.832;2023-01-31T04:59:03;93284.63;;;-2.81;76.40
12471;BME280;36499;46.484;13.832;2023-01-31T05:01:32;93286.66;;;-2.75;75.29
12471;BME280;36499;46.484;13.832;2023-01-31T05:03:59;93290.31;;;-2.58;75.31
12471;BME280;36499;46.484;13.832;2023-01-31T05:06:26;93277.09;;;-2.43;74.26
12471;BME280;36499;46.484;13.832;2023-01-31T05:08:53;93279.81;;;-2.25;73.38
12471;BME280;36499;46.484;13.832;2023-01-31T05:11:20;93281.41;;;-2.24;73.13
12471;BME280;36499;46.484;13.832;2023-01-31T05:13:47;93277.78;;;-2.40;73.82
12471;BME280;36499;46.484;13.832;2023-01-31T05:16:14;93292.94;;;-2.39;73.23
12471;BME280;36499;46.484;13.832;2023-01-31T05:18:42;93302.22;;;-2.48;74.05
12471;BME280;36499;46.484;13.832;2023-01-31T05:21:10;93308.28;;;-2.29;74.18
12471;BME280;36499;46.484;13.832;2023-01-31T05:23:37;93311.66;;;-2.29;73.49
12471;BME280;36499;46.484;13.832;2023-01-31T05:26:04;93325.47;;;-2.31;73.66
12471;BME280;36499;46.484;13.832;2023-01-31T05:28:31;93323.56;;;-2.39;73.87
12471;BME280;36499;46.484;13.832;2023-01-31T05:31:06;93327.56;;;-2.46;74.68
12471;BME280;36499;46.484;13.832;2023-01-31T05:33:34;93326.94;;;-2.38;74.14
12471;BME280;36499;46.484;13.832;2023-01-31T05:36:03;93335.06;;;-2.54;73.34
12471;BME280;36499;46.484;13.832;2023-01-31T05:38:30;93340.69;;;-2.60;73.55
12471;BME280;36499;46.484;13.832;2023-01-31T05:40:57;93347.63;;;-2.72;74.04
12471;BME280;36499;46.484;13.832;2023-01-31T05:43:24;93345.19;;;-2.73;73.93
12471;BME280;36499;46.484;13.832;2023-01-31T05:45:52;93352.91;;;-2.84;73.77
12471;BME280;36499;46.484;13.832;2023-01-31T05:48:19;93347.34;;;-2.78;74.05
12471;BME280;36499;46.484;13.832;2023-01-31T05:50:48;93349.09;;;-2.69;73.89
12471;BME280;36499;46.484;13.832;2023-01-31T05:53:17;93350.47;;;-2.65;73.43
12471;BME280;36499;46.484;13.832;2023-01-31T05:55:44;93355.91;;;-2.79;73.13
12471;BME280;36499;46.484;13.832;2023-01-31T05:58:14;93366.50;;;-3.05;74.08
12471;BME280;36499;46.484;13.832;2023-01-31T06:00:41;93362.09;;;-3.23;73.80
12471;BME280;36499;46.484;13.832;2023-01-31T06:03:09;93367.97;;;-3.23;74.55
12471;BME280;36499;46.484;13.832;2023-01-31T06:05:36;93372.16;;;-3.22;73.71
12471;BME280;36499;46.484;13.832;2023-01-31T06:08:05;93367.69;;;-3.29;72.94
12471;BME280;36499;46.484;13.832;2023-01-31T06:10:33;93367.13;;;-3.33;73.96
12471;BME280;36499;46.484;13.832;2023-01-31T06:13:00;93372.03;;;-3.41;73.38
12471;BME280;36499;46.484;13.832;2023-01-31T06:15:27;93372.72;;;-3.39;74.07
12471;BME280;36499;46.484;13.832;2023-01-31T06:17:55;93375.75;;;-3.45;74.66
12471;BME280;36499;46.484;13.832;2023-01-31T06:20:22;93377.94;;;-3.41;75.01
12471;BME280;36499;46.484;13.832;2023-01-31T06:22:49;93388.72;;;-3.48;75.28
12471;BME280;36499;46.484;13.832;2023-01-31T06:25:16;93394.38;;;-3.45;75.33
12471;BME280;36499;46.484;13.832;2023-01-31T06:27:45;93398.66;;;-3.45;74.64
12471;BME280;36499;46.484;13.832;2023-01-31T06:30:13;93404.09;;;-3.70;75.52
12471;BME280;36499;46.484;13.832;2023-01-31T06:32:40;93407.41;;;-3.59;76.03
12471;BME280;36499;46.484;13.832;2023-01-31T06:35:08;93406.97;;;-3.32;75.54
12471;BME280;36499;46.484;13.832;2023-01-31T06:37:35;93405.84;;;-3.18;74.54
12471;BME280;36499;46.484;13.832;2023-01-31T06:40:03;93416.91;;;-3.29;74.37
12471;BME280;36499;46.484;13.832;2023-01-31T06:42:30;93412.94;;;-3.22;74.69
12471;BME280;36499;46.484;13.832;2023-01-31T06:44:59;93424.06;;;-3.23;75.34
12471;BME280;36499;46.484;13.832;2023-01-31T06:47:26;93426.50;;;-3.21;74.32
12471;BME280;36499;46.484;13.832;2023-01-31T06:49:53;93432.16;;;-3.18;75.28
12471;BME280;36499;46.484;13.832;2023-01-31T06:52:20;93437.91;;;-3.05;73.32
12471;BME280;36499;46.484;13.832;2023-01-31T06:54:47;93434.03;;;-3.20;74.06
12471;BME280;36499;46.484;13.832;2023-01-31T06:57:14;93438.94;;;-3.28;73.43
12471;BME280;36499;46.484;13.832;2023-01-31T06:59:41;93440.78;;;-3.30;74.09
12471;BME280;36499;46.484;13.832;2023-01-31T07:02:10;93438.72;;;-3.36;74.10
12471;BME280;36499;46.484;13.832;2023-01-31T07:04:37;93432.00;;;-3.37;73.90
12471;BME280;36499;46.484;13.832;2023-01-31T07:07:05;93430.16;;;-3.35;74.05
12471;BME280;36499;46.484;13.832;2023-01-31T07:09:32;93430.16;;;-3.35;73.70
12471;BME280;36499;46.484;13.832;2023-01-31T07:12:00;93431.97;;;-3.26;75.13
12471;BME280;36499;46.484;13.832;2023-01-31T07:14:28;93434.47;;;-3.15;75.17
12471;BME280;36499;46.484;13.832;2023-01-31T07:16:55;93435.56;;;-3.08;74.13
12471;BME280;36499;46.484;13.832;2023-01-31T07:19:23;93437.09;;;-3.05;73.85
12471;BME280;36499;46.484;13.832;2023-01-31T07:21:51;93439.19;;;-3.10;74.71
12471;BME280;36499;46.484;13.832;2023-01-31T07:24:19;93442.41;;;-3.29;74.92
12471;BME280;36499;46.484;13.832;2023-01-31T07:26:46;93441.69;;;-3.20;74.79
12471;BME280;36499;46.484;13.832;2023-01-31T07:29:13;93437.84;;;-2.94;73.43
12471;BME280;36499;46.484;13.832;2023-01-31T07:31:40;93447.34;;;-2.96;72.66
12471;BME280;36499;46.484;13.832;2023-01-31T07:34:07;93446.88;;;-2.89;72.08
12471;BME280;36499;46.484;13.832;2023-01-31T07:36:35;93454.78;;;-3.04;73.21
12471;BME280;36499;46.484;13.832;2023-01-31T07:39:03;93453.56;;;-3.09;73.83
12471;BME280;36499;46.484;13.832;2023-01-31T07:41:31;93459.47;;;-3.09;73.70
12471;BME280;36499;46.484;13.832;2023-01-31T07:43:58;93458.97;;;-3.03;73.57
12471;BME280;36499;46.484;13.832;2023-01-31T07:46:25;93458.34;;;-2.95;73.03
12471;BME280;36499;46.484;13.832;2023-01-31T07:48:52;93457.44;;;-2.94;73.02
12471;BME280;36499;46.484;13.832;2023-01-31T07:51:19;93467.44;;;-3.02;72.95
12471;BME280;36499;46.484;13.832;2023-01-31T07:53:47;93469.06;;;-3.01;73.94
12471;BME280;36499;46.484;13.832;2023-01-31T07:56:17;93465.50;;;-3.10;73.96
12471;BME280;36499;46.484;13.832;2023-01-31T07:58:46;93461.69;;;-3.15;73.51
12471;BME280;36499;46.484;13.832;2023-01-31T08:01:17;93470.09;;;-3.04;73.29
12471;BME280;36499;46.484;13.832;2023-01-31T08:04:02;93468.66;;;-3.17;73.23
12471;BME280;36499;46.484;13.832;2023-01-31T08:06:30;93472.28;;;-2.99;72.75
12471;BME280;36499;46.484;13.832;2023-01-31T08:09:00;93470.84;;;-2.92;72.73
12471;BME280;36499;46.484;13.832;2023-01-31T08:11:28;93475.09;;;-3.02;72.45
12471;BME280;36499;46.484;13.832;2023-01-31T08:13:55;93484.56;;;-3.04;74.04
12471;BME280;36499;46.484;13.832;2023-01-31T08:16:22;93483.28;;;-2.99;73.11
12471;BME280;36499;46.484;13.832;2023-01-31T08:18:51;93477.78;;;-2.83;72.58
12471;BME280;36499;46.484;13.832;2023-01-31T08:21:18;93474.81;;;-2.67;72.08
12471;BME280;36499;46.484;13.832;2023-01-31T08:23:46;93468.25;;;-2.60;73.04
12471;BME280;36499;46.484;13.832;2023-01-31T08:26:18;93478.50;;;-2.51;72.48
12471;BME280;36499;46.484;13.832;2023-01-31T08:28:47;93474.47;;;-2.32;72.07
12471;BME280;36499;46.484;13.832;2023-01-31T08:31:17;93472.25;;;-2.16;70.35
12471;BME280;36499;46.484;13.832;2023-01-31T08:33:45;93469.78;;;-1.97;70.56
12471;BME280;36499;46.484;13.832;2023-01-31T08:36:17;93469.72;;;-1.76;68.92
12471;BME280;36499;46.484;13.832;2023-01-31T08:38:45;93463.81;;;-1.77;69.52
12471;BME280;36499;46.484;13.832;2023-01-31T08:41:15;93456.16;;;-1.77;70.22
12471;BME280;36499;46.484;13.832;2023-01-31T08:43:43;93455.38;;;-1.58;69.90
12471;BME280;36499;46.484;13.832;2023-01-31T08:46:11;93452.75;;;-1.37;69.50
12471;BME280;36499;46.484;13.832;2023-01-31T08:48:39;93458.13;;;-1.21;67.73
12471;BME280;36499;46.484;13.832;2023-01-31T08:51:10;93460.56;;;-1.10;67.22
12471;BME280;36499;46.484;13.832;2023-01-31T08:53:38;93464.88;;;-0.91;66.42
12471;BME280;36499;46.484;13.832;2023-01-31T08:56:07;93469.44;;;-0.76;65.81
12471;BME280;36499;46.484;13.832;2023-01-31T08:58:38;93474.16;;;-0.62;65.81
12471;BME280;36499;46.484;13.832;2023-01-31T09:01:08;93470.59;;;-0.32;64.98
12471;BME280;36499;46.484;13.832;2023-01-31T09:03:36;93471.25;;;-0.20;64.48
12471;BME280;36499;46.484;13.832;2023-01-31T09:06:07;93469.47;;;-0.10;63.79
12471;BME280;36499;46.484;13.832;2023-01-31T09:08:34;93472.13;;;-0.02;63.81
12471;BME280;36499;46.484;13.832;2023-01-31T09:11:02;93472.59;;;0.21;63.25
12471;BME280;36499;46.484;13.832;2023-01-31T09:13:30;93477.53;;;0.32;62.80
12471;BME280;36499;46.484;13.832;2023-01-31T09:16:01;93472.47;;;0.22;62.96
12471;BME280;36499;46.484;13.832;2023-01-31T09:18:29;93475.38;;;0.27;62.78
12471;BME280;36499;46.484;13.832;2023-01-31T09:21:03;93478.28;;;0.42;62.89
12471;BME280;36499;46.484;13.832;2023-01-31T09:23:31;93470.25;;;0.55;62.25
12471;BME280;36499;46.484;13.832;2023-01-31T09:25:58;93463.91;;;0.76;62.00
12471;BME280;36499;46.484;13.832;2023-01-31T09:28:25;93467.34;;;0.94;60.46
12471;BME280;36499;46.484;13.832;2023-01-31T09:30:53;93471.13;;;1.26;60.09
12471;BME280;36499;46.484;13.832;2023-01-31T09:33:22;93472.22;;;1.41;58.65
12471;BME280;36499;46.484;13.832;2023-01-31T09:35:56;93467.53;;;1.54;58.46
12471;BME280;36499;46.484;13.832;2023-01-31T09:38:24;93460.31;;;1.83;58.36
12471;BME280;36499;46.484;13.832;2023-01-31T09:40:55;93465.38;;;1.93;57.71
12471;BME280;36499;46.484;13.832;2023-01-31T09:43:31;93460.03;;;2.12;57.12
12471;BME280;36499;46.484;13.832;2023-01-31T09:46:05;93464.94;;;2.31;56.63
12471;BME280;36499;46.484;13.832;2023-01-31T09:48:37;93461.91;;;2.36;56.15
12471;BME280;36499;46.484;13.832;2023-01-31T09:51:12;93466.25;;;2.35;54.65
12471;BME280;36499;46.484;13.832;2023-01-31T09:53:41;93460.63;;;2.40;53.87
12471;BME280;36499;46.484;13.832;2023-01-31T09:56:31;93464.56;;;2.60;54.16
12471;BME280;36499;46.484;13.832;2023-01-31T09:59:13;93456.25;;;2.74;53.52
12471;BME280;36499;46.484;13.832;2023-01-31T10:01:55;93454.91;;;3.04;53.01
12471;BME280;36499;46.484;13.832;2023-01-31T10:04:57;93449.09;;;3.10;51.31
12471;BME280;36499;46.484;13.832;2023-01-31T10:07:36;93451.72;;;3.34;52.96
12471;BME280;36499;46.484;13.832;2023-01-31T10:10:15;93446.38;;;3.44;50.86
12471;BME280;36499;46.484;13.832;2023-01-31T10:12:47;93439.78;;;3.66;50.10
12471;BME280;36499;46.484;13.832;2023-01-31T10:15:28;93445.09;;;3.72;50.50
12471;BME280;36499;46.484;13.832;2023-01-31T10:18:00;93451.69;;;3.91;51.07
12471;BME280;36499;46.484;13.832;2023-01-31T10:20:37;93448.13;;;3.92;49.61
12471;BME280;36499;46.484;13.832;2023-01-31T10:23:16;93447.28;;;4.08;49.50
12471;BME280;36499;46.484;13.832;2023-01-31T10:25:50;93446.78;;;4.12;48.25
12471;BME280;36499;46.484;13.832;2023-01-31T10:28:23;93445.91;;;4.44;47.43
12471;BME280;36499;46.484;13.832;2023-01-31T10:30:59;93443.59;;;4.57;47.58
12471;BME280;36499;46.484;13.832;2023-01-31T10:33:38;93448.03;;;4.41;48.47
12471;BME280;36499;46.484;13.832;2023-01-31T10:36:23;93441.78;;;4.66;48.52
12471;BME280;36499;46.484;13.832;2023-01-31T10:39:02;93432.84;;;4.76;47.02
12471;BME280;36499;46.484;13.832;2023-01-31T10:41:46;93431.09;;;4.69;45.70
12471;BME280;36499;46.484;13.832;2023-01-31T10:44:23;93427.84;;;4.83;46.80
12471;BME280;36499;46.484;13.832;2023-01-31T10:46:57;93416.03;;;5.11;45.58
12471;BME280;36499;46.484;13.832;2023-01-31T10:49:27;93415.09;;;5.04;45.26
12471;BME280;36499;46.484;13.832;2023-01-31T10:52:15;93415.69;;;5.14;45.79
12471;BME280;36499;46.484;13.832;2023-01-31T10:55:00;93410.50;;;5.37;46.67
12471;BME280;36499;46.484;13.832;2023-01-31T10:57:31;93405.38;;;5.52;45.88
12471;BME280;36499;46.484;13.832;2023-01-31T10:59:59;93405.28;;;5.45;45.39
12471;BME280;36499;46.484;13.832;2023-01-31T11:02:28;93398.97;;;5.48;46.08
12471;BME280;36499;46.484;13.832;2023-01-31T11:04:58;93393.00;;;5.47;45.61
12471;BME280;36499;46.484;13.832;2023-01-31T11:07:30;93408.78;;;5.52;45.83
12471;BME280;36499;46.484;13.832;2023-01-31T11:09:57;93393.34;;;5.82;45.21
12471;BME280;36499;46.484;13.832;2023-01-31T11:12:40;93399.59;;;5.87;44.33
12471;BME280;36499;46.484;13.832;2023-01-31T11:15:15;93394.88;;;5.91;44.00
12471;BME280;36499;46.484;13.832;2023-01-31T11:17:45;93381.94;;;5.91;43.62
12471;BME280;36499;46.484;13.832;2023-01-31T11:20:24;93381.69;;;6.15;43.72
12471;BME280;36499;46.484;13.832;2023-01-31T11:22:57;93373.13;;;6.14;44.31
12471;BME280;36499;46.484;13.832;2023-01-31T11:25:27;93369.94;;;6.12;44.18
12471;BME280;36499;46.484;13.832;2023-01-31T11:27:59;93362.41;;;6.32;43.44
12471;BME280;36499;46.484;13.832;2023-01-31T11:30:30;93348.75;;;6.38;43.27
12471;BME280;36499;46.484;13.832;2023-01-31T11:33:00;93354.44;;;6.48;42.86
12471;BME280;36499;46.484;13.832;2023-01-31T11:35:30;93353.72;;;6.54;42.64
12471;BME280;36499;46.484;13.832;2023-01-31T11:38:02;93360.03;;;6.66;40.64
12471;BME280;36499;46.484;13.832;2023-01-31T11:40:33;93350.44;;;6.82;41.20
12471;BME280;36499;46.484;13.832;2023-01-31T11:43:04;93345.56;;;6.93;40.36
12471;BME280;36499;46.484;13.832;2023-01-31T11:45:35;93347.72;;;6.90;40.48
12471;BME280;36499;46.484;13.832;2023-01-31T11:48:08;93334.41;;;6.93;39.19
12471;BME280;36499;46.484;13.832;2023-01-31T11:50:40;93325.88;;;7.20;40.03
12471;BME280;36499;46.484;13.832;2023-01-31T11:53:20;93327.25;;;7.37;39.92
12471;BME280;36499;46.484;13.832;2023-01-31T11:55:50;93328.13;;;7.51;39.75
12471;BME280;36499;46.484;13.832;2023-01-31T11:58:22;93328.28;;;7.70;40.71
12471;BME280;36499;46.484;13.832;2023-01-31T12:00:55;93318.22;;;7.61;40.01
12471;BME280;36499;46.484;13.832;2023-01-31T12:03:24;93314.59;;;7.83;40.28
12471;BME280;36499;46.484;13.832;2023-01-31T12:06:01;93319.59;;;7.85;40.24
12471;BME280;36499;46.484;13.832;2023-01-31T12:08:33;93320.94;;;7.74;39.78
12471;BME280;36499;46.484;13.832;2023-01-31T12:11:04;93320.13;;;7.73;38.33
12471;BME280;36499;46.484;13.832;2023-01-31T12:13:46;93319.41;;;7.58;39.52
12471;BME280;36499;46.484;13.832;2023-01-31T12:16:18;93319.38;;;7.52;40.71
12471;BME280;36499;46.484;13.832;2023-01-31T12:19:07;93313.22;;;7.32;41.48
12471;BME280;36499;46.484;13.832;2023-01-31T12:21:53;93305.72;;;7.43;42.59
12471;BME280;36499;46.484;13.832;2023-01-31T12:24:39;93297.78;;;7.45;42.98
12471;BME280;36499;46.484;13.832;2023-01-31T12:27:27;93301.09;;;7.39;41.29
12471;BME280;36499;46.484;13.832;2023-01-31T12:30:24;93305.69;;;7.37;41.73
12471;BME280;36499;46.484;13.832;2023-01-31T12:33:15;93302.75;;;7.18;41.58
12471;BME280;36499;46.484;13.832;2023-01-31T12:36:08;93300.94;;;7.40;42.43
12471;BME280;36499;46.484;13.832;2023-01-31T12:39:02;93301.28;;;7.65;42.72
12471;BME280;36499;46.484;13.832;2023-01-31T12:41:42;93298.88;;;7.36;41.23
12471;BME280;36499;46.484;13.832;2023-01-31T12:44:40;93304.03;;;7.29;39.92
12471;BME280;36499;46.484;13.832;2023-01-31T12:50:25;93308.25;;;7.30;41.76
12471;BME280;36499;46.484;13.832;2023-01-31T12:53:20;93304.84;;;7.57;47.79
12471;BME280;36499;46.484;13.832;2023-01-31T12:56:05;93303.88;;;7.93;46.66
12471;BME280;36499;46.484;13.832;2023-01-31T12:58:48;93298.41;;;8.22;46.11
12471;BME280;36499;46.484;13.832;2023-01-31T13:01:26;93298.34;;;8.43;43.42
12471;BME280;36499;46.484;13.832;2023-01-31T13:07:05;93292.88;;;8.25;43.32
12471;BME280;36499;46.484;13.832;2023-01-31T13:09:36;93291.16;;;8.04;40.51
12471;BME280;36499;46.484;13.832;2023-01-31T13:12:07;93291.19;;;7.77;41.23
12471;BME280;36499;46.484;13.832;2023-01-31T13:14:44;93282.06;;;7.25;45.38
12471;BME280;36499;46.484;13.832;2023-01-31T13:17:22;93287.31;;;7.38;47.46
12471;BME280;36499;46.484;13.832;2023-01-31T13:19:53;93286.88;;;7.28;48.02
12471;BME280;36499;46.484;13.832;2023-01-31T13:22:27;93279.97;;;7.14;47.77
12471;BME280;36499;46.484;13.832;2023-01-31T13:25:10;93283.88;;;7.03;47.89
12471;BME280;36499;46.484;13.832;2023-01-31T13:27:47;93278.75;;;6.67;46.98
12471;BME280;36499;46.484;13.832;2023-01-31T13:30:34;93272.66;;;6.39;48.30
12471;BME280;36499;46.484;13.832;2023-01-31T13:33:16;93275.84;;;6.05;49.75